DATOS DEL TIEMPO

HOY
Time Temp. Dewp. Hum. Direcció Velocidad Wind gust Bar. 1h Prec. 24h Prec.
00:01 14 11 82 259 3.6 5.6 1007.2 0.0000 0.0000
00:12 14 11 82 255 3.3 5.6 1007 0.0000 0.0000
00:22 13.9 10.9 82 258 3.3 5 1007.2 0.0000 0.0000
00:31 13.7 10.3 80 266 3.9 6.1 1007.2 0.0000 0.0000
00:42 13.4 10.2 81 259 3.6 5.6 1007 0.0000 0.0000
00:52 13.2 10 81 263 4.2 6.1 1007 0.0000 0.0000
01:02 13.2 10 81 270 4.7 6.9 1007.1 0.0000 0.0000
01:12 13.3 10.1 81 268 4.4 7.5 1007 0.0000 0.0000
01:22 13.3 10.1 81 267 4.7 6.7 1007 0.0000 0.0000
01:32 13.4 10.4 82 268 4.4 6.4 1006.9 0.0000 0.0000
01:42 13.4 10.4 82 270 4.4 6.7 1007 0.0000 0.0000
01:53 13.4 10.4 82 268 4.7 7.8 1007 0.0000 0.0000
02:03 13.3 10.3 82 265 4.2 6.4 1007 0.0000 0.0000
02:12 13.3 10.5 83 267 4.4 6.1 1007 0.0000 0.0000
02:22 13.3 10.5 83 260 4.4 6.9 1007 0.0000 0.0000
02:33 13.2 10.4 83 262 4.7 7.5 1007 0.0000 0.0000
02:43 13.1 10.3 83 268 4.7 6.9 1006.9 0.0000 0.0000
02:53 13 10.2 83 266 4.4 6.1 1006.9 0.0000 0.0000
03:03 13 10.2 83 262 4.2 5.8 1006.9 0.0000 0.0000
03:13 13 10.2 83 266 4.2 6.7 1007 0.0000 0.0000
03:23 12.9 10.1 83 268 4.7 7.2 1007 0.0000 0.0000
03:33 12.8 10 83 268 4.2 5.8 1006.9 0.0000 0.0000
03:44 12.7 9.9 83 265 4.2 5.8 1007 0.0000 0.0000
03:53 12.7 9.9 83 267 4.2 6.4 1006.9 0.0000 0.0000
04:03 12.6 9.8 83 266 4.2 6.1 1006.8 0.0000 0.0000
04:14 12.6 9.8 83 268 4.2 6.7 1006.8 0.0000 0.0000
04:24 12.5 9.9 84 264 4.4 6.4 1006.9 0.0000 0.0000
04:34 12.5 9.9 84 263 3.9 6.1 1006.8 0.0000 0.0000
04:43 12.5 9.9 84 266 4.4 5.6 1006.7 0.0000 0.0000
04:54 12.5 9.9 84 257 3.9 5.8 1006.8 0.0000 0.0000
05:04 12.5 9.9 84 257 3.6 5.3 1006.7 0.0000 0.0000
05:14 12.5 9.9 84 264 4.2 6.1 1006.7 0.0000 0.0000
05:24 12.5 9.9 84 268 4.7 6.7 1006.7 0.0000 0.0000
05:34 12.5 9.9 84 267 4.4 8.1 1006.6 0.0000 0.0000
05:44 12.5 9.9 84 267 5 8.1 1006.7 0.0000 0.0000
05:54 12.5 9.9 84 267 4.4 6.7 1006.7 0.0000 0.0000
06:05 12.5 9.9 84 265 4.4 6.4 1006.7 0.0000 0.0000
06:15 12.5 9.7 83 266 4.2 5.8 1006.6 0.0000 0.0000
06:25 12.5 9.7 83 265 4.2 5.6 1006.7 0.0000 0.0000
06:35 12.5 9.9 84 262 3.9 5.3 1006.6 0.0000 0.0000
06:45 12.5 9.9 84 261 3.6 5.6 1006.8 0.0000 0.0000
06:55 12.5 9.9 84 267 3.9 6.9 1006.7 0.0000 0.0000
07:05 12.5 9.9 84 268 4.4 5.8 1006.8 0.0000 0.0000
07:16 12.5 9.9 84 268 4.2 6.7 1007 0.0000 0.0000
07:25 12.7 10.1 84 268 4.7 6.4 1006.9 0.0000 0.0000
07:35 12.7 10.1 84 266 4.4 6.9 1006.9 0.0000 0.0000
07:45 12.8 10.2 84 270 4.7 6.7 1006.9 0.0000 0.0000
07:56 12.9 10.3 84 268 4.4 7.8 1007.2 0.0000 0.0000
08:06 13 10.2 83 275 5.3 7.2 1007 0.0000 0.0000
08:15 13 10.2 83 272 4.4 6.1 1007.1 0.0000 0.0000
08:26 13.2 10.4 83 256 4.4 6.7 1007 0.0000 0.0000
08:36 13.7 10.7 82 268 5.6 8.9 1007.1 0.0000 0.0000
08:46 13.9 10.7 81 268 5.6 10.3 1007 0.0000 0.0000
08:56 14 10.6 80 273 5.3 7.5 1007 0.0000 0.0000
09:06 14.1 10.7 80 268 5.6 9.2 1007.2 0.0000 0.0000
09:16 14.1 10.5 79 274 5.3 8.9 1007.2 0.0000 0.0000
09:31 14.3 10.7 79 276 6.1 11.9 1007.1 0.0000 0.0000
09:41 14.6 11 79 268 5.3 8.9 1007.1 0.0000 0.0000
09:51 14.8 11 78 272 5.6 8.9 1007.1 0.0000 0.0000
10:01 15 11 77 278 5.3 8.1 1007.1 0.0000 0.0000
10:11 15.3 11.1 76 272 5 8.3 1007.1 0.0000 0.0000
10:22 15.4 11 75 279 5.8 8.3 1007.3 0.0000 0.0000
10:32 15.3 10.9 75 279 5.6 8.1 1007.2 0.0000 0.0000
10:41 15.6 11.2 75 267 4.4 7.2 1007.2 0.0000 0.0000
10:51 15.9 11.3 74 276 3.9 7.5 1007.2 0.0000 0.0000
11:02 16.2 11.4 73 288 3.3 6.4 1007.4 0.0000 0.0000
11:12 16.3 11.5 73 287 2.8 6.1 1007.2 0.0000 0.0000
11:22 16.3 11.2 72 287 4.2 7.8 1007.1 0.0000 0.0000
11:32 16.3 11.2 72 290 3.9 6.7 1007.1 0.0000 0.0000
11:42 16.2 11.2 72 286 3.3 5.8 1007.2 0.0000 0.0000
11:52 16.1 11.3 73 291 4.4 6.9 1007.2 0.0000 0.0000
12:02 16.2 11.4 73 284 3.9 6.7 1007.1 0.0000 0.0000
12:13 16.2 11.6 74 289 4.2 7.8 1007.4 0.0000 0.0000
12:22 15.8 11.6 76 282 4.4 8.3 1007.4 0.0000 0.0000
12:32 15.1 11.7 80 277 4.7 7.2 1007.4 0.0000 0.0000
12:43 14.7 11.7 82 258 3.9 7.2 1007.5 0.0000 0.0000
12:53 14.6 11.7 83 270 4.7 7.8 1007.6 0.0000 0.0000
13:03 14.4 11.6 83 276 4.7 9.2 1007.5 0.1760 0.2000
13:12 14.2 11.7 85 272 4.4 7.5 1007.7 0.3520 0.4000
13:23 14.1 11.8 86 275 3.9 5.8 1007.7 0.3520 0.4000
13:33 14 11.9 87 266 4.4 7.2 1007.6 0.3520 0.4000
13:50 14 11.9 87 270 4.7 7.2 1007.6 0.5280 0.5000
14:00 14.1 12 87 268 4.2 7.8 1007.4 0.3520 0.5000
14:11 14.2 12.1 87 285 5.8 9.4 1007.5 0.1760 0.5000
14:21 14.2 12.1 87 284 5.3 9.4 1007.6 0.1760 0.5000
14:30 14.2 12.1 87 282 5.3 7.5 1007.6 0.1760 0.5000
14:40 14.2 12.1 87 281 5 8.6 1007.6 0.1760 0.5000
14:51 14.3 12.2 87 277 4.4 7.5 1007.6 0.0000 0.5000
15:01 14.4 12.3 87 284 5.3 8.9 1007.5 0.0000 0.5000
15:10 14.4 12.3 87 278 5 11.7 1007.5 0.0000 0.5000
15:21 14.4 12.3 87 268 4.7 7.2 1007.5 0.0000 0.5000
15:31 14.3 12.2 87 280 5.3 7.5 1007.5 0.0000 0.5000
15:41 14.3 12.2 87 275 5 8.1 1007.6 0.0000 0.5000
15:51 14.3 12.2 87 280 5 8.3 1007.5 0.0000 0.5000
16:02 14.3 12.3 88 277 5.6 9.7 1007.4 0.0000 0.5000
16:11 14.2 12.1 87 283 5.6 9.4 1007.4 0.0000 0.5000
16:21 14.2 12.2 88 274 4.4 7.8 1007.4 0.0000 0.5000
16:31 14.3 12.3 88 286 5.6 9.2 1007.4 0.0000 0.5000
16:42 14.3 12.3 88 280 4.4 6.9 1007.4 0.0000 0.5000
16:52 14.2 12.4 89 275 4.7 9.4 1007.4 0.0000 0.5000
17:01 14.1 12.3 89 274 4.4 7.5 1007.5 0.0000 0.5000
17:12 14.1 12.3 89 277 4.4 7.5 1007.5 0.0000 0.5000
17:22 14.1 12.3 89 277 5.3 8.1 1007.5 0.0000 0.5000
17:32 14.1 12.3 89 278 5.3 7.8 1007.5 0.0000 0.5000
17:42 14.1 12.3 89 278 5.3 7.8 1007.3 0.0000 0.5000

ESTADÍSTICA DEL DÍA

2021-09-18
TEMPERATURA
NORMAL
13.8
ALTO
16.3
11:12
BAJA
12.5
04:24
PRESIÓN
NORMAL
1007.1
ALTO
1007.7
13:12
BAJA
1006.6
05:34
PUNTO DE ROCÍO
NORMAL
10.9
ALTO
12.4
16:52
BAJA
9.7
06:15
HUMEDAD
NORMAL
83
ALTO
89
16:52
BAJA
72
11:22
VELOCIDAD DEL VIENTO
NORMAL
4.5
ALTO
6.1
09:31
WIND GUST
NORMAL
7.3
ALTO
11.9
09:31
DIRECCIÓN DEL VIENTO
PREDOMINANTE
O
100%
N
0.0
NE
0.0
E
0.0
SE
0.0
S
0.0
SO
0.0
O
100.0
NO
0.0
PRECIPITACIÓN
LLUVIA ACUMULADA ÚLTIMA HORA
0.5
LLUVIA ACUMULADA DURANTE EL DÍA
0.5
TEMPERATURA (°C)
BAJA
12.5
ALTO
16.3
NORMAL
13.8
PRESIÓN (hpa)
BAJA
1006.6
ALTO
1007.7
NORMAL
1007.1
DEVICE